Time;durP1;ratioP1;P1;durP2;ratioP2;P2;SDS_P1;SDS_P2;PMS_P1;PMS_P2;Temp;Humidity;BMP_temperature;BMP_pressure;BME280_temperature;BME280_humidity;BME280_pressure;Samples;Min_cycle;Max_cycle;Signal;HPM_P1;HPM_P2
2023/01/28 00:01:24;;;;;;;19.23;10.80;;;0.80;99.90;;;;;;5004268;28;20207;-50
2023/01/28 00:03:51;;;;;;;19.37;9.87;;;0.70;99.90;;;;;;5003623;28;20212;-49
2023/01/28 00:06:19;;;;;;;18.77;11.13;;;0.70;99.90;;;;;;5006518;28;20219;-50
2023/01/28 00:08:46;;;;;;;18.77;10.77;;;0.70;99.90;;;;;;5012765;28;20263;-50
2023/01/28 00:11:15;;;;;;;20.40;10.53;;;0.70;99.90;;;;;;5012549;28;20298;-48
2023/01/28 00:13:42;;;;;;;21.47;10.53;;;0.80;99.90;;;;;;5013002;28;20254;-48
2023/01/28 00:16:09;;;;;;;17.57;10.20;;;0.80;99.90;;;;;;5005221;28;20303;-49
2023/01/28 00:18:36;;;;;;;19.53;10.87;;;0.70;99.90;;;;;;5012336;28;20224;-49
2023/01/28 00:21:06;;;;;;;20.13;11.37;;;0.70;99.90;;;;;;5010243;28;20199;-49
2023/01/28 00:23:34;;;;;;;19.73;10.70;;;0.80;99.90;;;;;;5012439;28;20574;-50
2023/01/28 00:26:03;;;;;;;21.77;9.80;;;0.80;99.90;;;;;;5012753;28;20627;-50
2023/01/28 00:28:32;;;;;;;20.63;10.47;;;0.80;99.90;;;;;;5006799;28;20208;-48
2023/01/28 00:30:59;;;;;;;20.73;10.83;;;0.90;99.90;;;;;;5012430;28;20254;-49
2023/01/28 00:33:28;;;;;;;20.23;10.30;;;0.80;99.90;;;;;;5012565;28;20759;-48
2023/01/28 00:35:59;;;;;;;20.40;9.87;;;0.70;99.90;;;;;;5012464;28;20745;-49
2023/01/28 00:38:27;;;;;;;21.27;10.43;;;0.80;99.90;;;;;;5010782;28;20263;-50
2023/01/28 00:40:54;;;;;;;20.27;11.00;;;0.70;99.90;;;;;;5009867;28;20583;-50
2023/01/28 00:43:21;;;;;;;15.87;9.83;;;0.60;99.90;;;;;;5012531;28;20251;-50
2023/01/28 00:45:50;;;;;;;18.27;9.83;;;0.60;99.90;;;;;;5012130;28;20199;-48
2023/01/28 00:48:17;;;;;;;20.20;10.03;;;0.70;99.90;;;;;;5012162;28;20262;-49
2023/01/28 00:50:44;;;;;;;18.10;9.50;;;0.60;99.90;;;;;;5011818;28;20266;-49
2023/01/28 00:53:11;;;;;;;17.47;10.03;;;0.60;99.90;;;;;;5005633;28;20202;-49
2023/01/28 00:55:38;;;;;;;17.67;10.80;;;0.60;99.90;;;;;;5012128;28;20231;-51
2023/01/28 00:58:05;;;;;;;19.33;9.60;;;0.50;99.90;;;;;;5012283;28;20228;-49
2023/01/28 01:00:32;;;;;;;17.23;10.57;;;0.60;99.90;;;;;;5012139;28;20850;-49
2023/01/28 01:03:01;;;;;;;22.07;10.37;;;0.60;99.90;;;;;;5011893;28;20204;-49
2023/01/28 01:05:28;;;;;;;18.07;8.63;;;0.60;99.90;;;;;;5010247;28;20282;-49
2023/01/28 01:07:55;;;;;;;21.73;9.83;;;0.60;99.90;;;;;;5012102;28;20225;-49
2023/01/28 01:10:22;;;;;;;19.37;9.90;;;0.60;99.90;;;;;;5002333;28;20209;-50
2023/01/28 01:12:50;;;;;;;22.20;10.70;;;0.50;99.90;;;;;;5010651;28;20204;-49
2023/01/28 01:15:18;;;;;;;19.50;10.33;;;0.50;99.90;;;;;;5011831;28;20259;-50
2023/01/28 01:17:47;;;;;;;17.87;9.60;;;0.50;99.90;;;;;;5004825;28;20222;-51
2023/01/28 01:20:17;;;;;;;15.70;8.73;;;0.40;99.90;;;;;;5011881;28;20200;-49
2023/01/28 01:22:44;;;;;;;16.53;10.90;;;0.40;99.90;;;;;;5011474;28;20703;-49
2023/01/28 01:25:12;;;;;;;18.47;9.63;;;0.50;99.90;;;;;;5011798;28;20206;-49
2023/01/28 01:27:39;;;;;;;18.00;9.37;;;0.50;99.90;;;;;;5009135;28;20217;-50
2023/01/28 01:30:08;;;;;;;15.07;8.37;;;0.60;99.90;;;;;;5007010;28;20212;-48
2023/01/28 01:32:35;;;;;;;18.73;9.63;;;0.60;99.90;;;;;;5010577;28;20210;-49
2023/01/28 01:35:06;;;;;;;19.83;9.43;;;0.60;99.90;;;;;;5011613;28;20195;-48
2023/01/28 01:37:35;;;;;;;16.53;10.33;;;0.60;99.90;;;;;;5011568;28;20649;-50
2023/01/28 01:40:03;;;;;;;15.53;8.97;;;0.60;99.90;;;;;;5010453;28;20196;-49
2023/01/28 01:42:31;;;;;;;21.53;9.37;;;0.60;99.90;;;;;;5002904;28;20243;-49
2023/01/28 01:45:02;;;;;;;17.40;9.10;;;0.50;99.90;;;;;;5005764;28;20196;-49
2023/01/28 01:47:35;;;;;;;21.03;8.53;;;0.50;99.90;;;;;;5011399;28;20225;-50
2023/01/28 01:50:08;;;;;;;16.83;9.27;;;0.40;99.90;;;;;;5011553;28;20264;-49
2023/01/28 01:52:36;;;;;;;15.87;8.80;;;0.50;99.90;;;;;;5011421;28;20207;-49
2023/01/28 01:55:09;;;;;;;14.93;8.70;;;0.50;99.90;;;;;;5010065;28;20671;-49
2023/01/28 01:57:37;;;;;;;13.40;8.70;;;0.50;99.90;;;;;;5011153;28;20219;-50
2023/01/28 02:00:07;;;;;;;15.77;8.33;;;0.50;99.90;;;;;;5010264;28;20752;-53
2023/01/28 02:02:38;;;;;;;15.60;8.03;;;0.50;99.90;;;;;;5006424;28;20218;-49
2023/01/28 02:05:06;;;;;;;15.47;8.73;;;0.70;99.90;;;;;;5011449;28;20230;-48
2023/01/28 02:07:34;;;;;;;17.40;9.63;;;0.60;99.90;;;;;;5002636;28;20220;-48
2023/01/28 02:10:03;;;;;;;16.07;9.43;;;0.70;99.90;;;;;;5011066;28;20202;-48
2023/01/28 02:12:35;;;;;;;17.20;9.40;;;0.70;99.90;;;;;;5011113;28;20677;-50
2023/01/28 02:15:05;;;;;;;17.00;8.87;;;0.70;99.90;;;;;;5011547;28;20207;-48
2023/01/28 02:17:32;;;;;;;16.90;8.93;;;0.70;99.90;;;;;;5009904;28;20287;-49
2023/01/28 02:20:02;;;;;;;17.97;10.37;;;0.70;99.90;;;;;;5011778;28;20204;-48
2023/01/28 02:23:05;;;;;;;15.90;9.03;;;0.60;99.90;;;;;;5011207;28;20211;-49
2023/01/28 02:25:46;;;;;;;16.60;9.90;;;0.60;99.90;;;;;;5001638;28;20204;-50
2023/01/28 02:28:22;;;;;;;14.77;7.77;;;0.60;99.90;;;;;;5014985;28;20211;-49
2023/01/28 02:30:55;;;;;;;15.90;8.33;;;0.60;99.90;;;;;;5014918;28;20214;-49
2023/01/28 02:33:29;;;;;;;15.63;8.30;;;0.60;99.90;;;;;;5008435;28;20271;-48
2023/01/28 02:35:56;;;;;;;14.60;8.30;;;0.70;99.90;;;;;;5007579;28;20291;-48
2023/01/28 02:38:26;;;;;;;14.87;9.27;;;0.70;99.90;;;;;;5014497;28;20706;-48
2023/01/28 02:41:05;;;;;;;14.03;9.30;;;0.70;99.90;;;;;;5014685;28;20252;-49
2023/01/28 02:43:38;;;;;;;11.10;8.53;;;0.60;99.90;;;;;;5014861;28;20715;-48
2023/01/28 02:48:58;;;;;;;15.33;8.47;;;0.60;99.90;;;;;;5006765;28;20258;-49
2023/01/28 02:51:33;;;;;;;16.40;8.63;;;0.60;99.90;;;;;;5012675;28;20252;-49
2023/01/28 02:54:08;;;;;;;14.17;8.03;;;0.50;99.90;;;;;;5012991;28;20628;-51
2023/01/28 02:56:43;;;;;;;13.47;8.13;;;0.50;99.90;;;;;;5011299;28;20221;-49
2023/01/28 02:59:32;;;;;;;14.93;7.80;;;0.60;99.90;;;;;;5006189;28;20282;-48
2023/01/28 03:02:08;;;;;;;14.93;8.60;;;0.60;99.90;;;;;;5006386;28;20203;-49
2023/01/28 03:04:39;;;;;;;17.23;8.73;;;0.60;99.90;;;;;;5014328;28;20203;-49
2023/01/28 03:07:09;;;;;;;20.37;9.43;;;0.60;99.90;;;;;;5014438;28;20718;-50
2023/01/28 03:09:36;;;;;;;16.33;8.67;;;0.60;99.90;;;;;;5006790;28;20556;-49
2023/01/28 03:37:20;;;;;;;15.73;9.13;;;0.70;99.90;;;;;;5011347;28;20222;-49
2023/01/28 03:39:47;;;;;;;15.40;8.20;;;0.60;99.90;;;;;;5013587;28;20228;-51
2023/01/28 03:42:17;;;;;;;13.33;8.67;;;0.60;99.90;;;;;;5013447;28;20204;-49
2023/01/28 03:44:51;;;;;;;15.30;9.07;;;0.60;99.90;;;;;;5005948;28;20203;-50
2023/01/28 03:47:22;;;;;;;13.10;8.37;;;0.60;99.90;;;;;;5013156;28;20605;-49
2023/01/28 03:49:51;;;;;;;15.73;9.30;;;0.60;99.90;;;;;;5009356;28;20205;-50
2023/01/28 03:52:22;;;;;;;16.03;9.00;;;0.60;99.90;;;;;;5012848;28;20265;-51
2023/01/28 03:54:51;;;;;;;16.47;9.23;;;0.70;99.90;;;;;;5013111;28;20274;-49
2023/01/28 03:57:22;;;;;;;13.40;8.13;;;0.60;99.90;;;;;;5013209;28;20310;-49
2023/01/28 03:59:49;;;;;;;15.20;8.20;;;0.60;99.90;;;;;;5013091;28;20211;-49
2023/01/28 04:02:17;;;;;;;12.03;8.00;;;0.60;99.90;;;;;;5002639;28;20209;-50
2023/01/28 04:04:46;;;;;;;15.23;8.90;;;0.50;99.90;;;;;;5009089;28;20260;-50
2023/01/28 04:07:14;;;;;;;16.97;8.53;;;0.50;99.90;;;;;;5013059;28;20225;-49
2023/01/28 04:09:42;;;;;;;12.10;7.83;;;0.60;99.90;;;;;;5012792;28;20543;-49
2023/01/28 04:12:09;;;;;;;12.83;8.60;;;0.70;99.90;;;;;;5012737;28;20206;-49
2023/01/28 04:14:38;;;;;;;12.47;8.13;;;0.70;99.90;;;;;;5004103;28;20679;-50
2023/01/28 04:17:06;;;;;;;14.70;9.00;;;0.60;99.90;;;;;;5012431;28;20730;-51
2023/01/28 04:19:35;;;;;;;12.60;8.03;;;0.60;99.90;;;;;;5009125;28;20247;-50
2023/01/28 04:22:05;;;;;;;9.73;7.70;;;0.60;99.90;;;;;;5012231;28;20201;-50
2023/01/28 04:24:32;;;;;;;13.80;8.43;;;0.60;99.90;;;;;;5012717;28;20211;-50
2023/01/28 04:26:59;;;;;;;14.30;8.30;;;0.60;99.90;;;;;;5008300;28;20277;-49
2023/01/28 04:29:26;;;;;;;14.23;8.40;;;0.60;99.90;;;;;;5008447;28;20245;-50
2023/01/28 04:31:53;;;;;;;14.30;8.03;;;0.70;99.90;;;;;;5012444;28;20267;-49
2023/01/28 04:34:20;;;;;;;15.47;8.50;;;0.70;99.90;;;;;;5013675;28;20632;-49
2023/01/28 04:36:47;;;;;;;13.87;8.23;;;0.80;99.90;;;;;;5007177;28;20229;-49
2023/01/28 04:39:16;;;;;;;14.53;8.90;;;0.80;99.90;;;;;;5004788;28;20225;-49
2023/01/28 04:41:43;;;;;;;16.27;8.93;;;0.70;99.90;;;;;;5011046;28;20206;-51
2023/01/28 04:44:10;;;;;;;14.93;8.60;;;0.60;99.90;;;;;;5012116;28;20738;-50
2023/01/28 04:46:37;;;;;;;11.97;7.73;;;0.50;99.90;;;;;;5012091;28;20781;-51
2023/01/28 04:49:04;;;;;;;15.07;8.73;;;0.50;99.90;;;;;;5012038;28;20196;-51
2023/01/28 04:51:31;;;;;;;15.03;9.43;;;0.60;99.90;;;;;;5012157;28;20259;-49
2023/01/28 04:53:58;;;;;;;13.50;8.93;;;0.70;99.90;;;;;;5007149;28;20625;-49
2023/01/28 04:56:26;;;;;;;11.00;8.33;;;0.70;99.90;;;;;;5004084;28;20226;-48
2023/01/28 04:58:53;;;;;;;11.17;8.13;;;0.60;99.90;;;;;;5011822;28;20220;-49
2023/01/28 05:01:20;;;;;;;13.30;8.77;;;0.60;99.90;;;;;;5011962;28;20255;-50
2023/01/28 05:03:47;;;;;;;14.80;9.47;;;0.60;99.90;;;;;;5011802;28;20260;-50
2023/01/28 05:06:14;;;;;;;12.53;8.87;;;0.60;99.90;;;;;;5002613;28;20718;-51
2023/01/28 05:08:40;;;;;;;11.40;7.93;;;0.60;99.90;;;;;;5001970;28;20261;-49
2023/01/28 05:11:07;;;;;;;13.60;8.23;;;0.60;99.90;;;;;;5006301;28;20732;-52
2023/01/28 05:13:36;;;;;;;12.53;8.40;;;0.60;99.90;;;;;;4999128;28;20300;-48
2023/01/28 05:16:03;;;;;;;13.83;9.47;;;0.60;99.90;;;;;;5009271;28;20222;-48
2023/01/28 05:18:30;;;;;;;12.83;8.17;;;0.60;99.90;;;;;;5011060;28;20274;-49
2023/01/28 05:20:57;;;;;;;14.93;8.83;;;0.50;99.90;;;;;;5023487;28;20730;-49
2023/01/28 05:23:24;;;;;;;14.30;9.33;;;0.50;99.90;;;;;;5030993;28;20203;-50
2023/01/28 05:25:51;;;;;;;13.27;8.67;;;0.50;99.90;;;;;;4998691;28;20264;-49
2023/01/28 05:28:18;;;;;;;12.63;8.33;;;0.60;99.90;;;;;;5005584;28;20192;-50
2023/01/28 05:30:46;;;;;;;14.20;9.03;;;0.60;99.90;;;;;;5000660;28;20264;-49
2023/01/28 05:33:13;;;;;;;14.73;8.83;;;0.60;99.90;;;;;;5005516;28;20205;-50
2023/01/28 05:35:40;;;;;;;13.33;8.17;;;0.60;99.90;;;;;;5011218;28;20245;-50
2023/01/28 05:38:07;;;;;;;13.33;8.37;;;0.70;99.90;;;;;;5011323;28;20270;-49
2023/01/28 05:40:35;;;;;;;12.93;9.73;;;0.70;99.90;;;;;;5001434;28;20666;-51
2023/01/28 05:43:01;;;;;;;15.30;8.73;;;0.70;99.90;;;;;;5011030;28;20195;-50
2023/01/28 05:45:28;;;;;;;14.87;9.57;;;0.70;99.90;;;;;;5011584;28;20207;-49
2023/01/28 05:47:57;;;;;;;16.07;9.37;;;0.60;99.90;;;;;;4994885;28;20656;-49
2023/01/28 05:50:24;;;;;;;13.00;8.90;;;0.60;99.90;;;;;;5007337;28;20214;-51
2023/01/28 05:52:51;;;;;;;13.53;9.30;;;0.50;99.90;;;;;;5015003;28;20283;-49
2023/01/28 05:55:19;;;;;;;13.67;9.00;;;0.50;99.90;;;;;;5012975;28;20761;-51
2023/01/28 05:57:46;;;;;;;9.30;8.00;;;0.50;99.90;;;;;;5006243;28;20216;-48
2023/01/28 06:00:14;;;;;;;13.47;8.70;;;0.60;99.90;;;;;;5010512;28;20266;-49
2023/01/28 06:02:41;;;;;;;14.37;8.83;;;0.60;99.90;;;;;;5004011;28;20296;-48
2023/01/28 06:05:10;;;;;;;12.10;9.37;;;0.50;99.90;;;;;;5008950;28;20248;-50
2023/01/28 06:07:37;;;;;;;13.67;9.50;;;0.40;99.90;;;;;;5014245;28;20223;-50
2023/01/28 06:10:05;;;;;;;13.57;8.60;;;0.40;99.90;;;;;;5015112;28;20612;-49
2023/01/28 06:12:32;;;;;;;14.00;9.50;;;0.30;99.90;;;;;;5014699;28;20199;-50
2023/01/28 06:14:59;;;;;;;13.37;9.00;;;0.30;99.90;;;;;;5012644;28;20216;-51
2023/01/28 06:17:26;;;;;;;13.60;9.27;;;0.30;99.90;;;;;;5010495;28;20308;-49
2023/01/28 06:19:52;;;;;;;15.57;9.20;;;0.30;99.90;;;;;;5014989;28;20243;-51
2023/01/28 06:22:23;;;;;;;14.53;10.13;;;0.20;99.90;;;;;;5004941;28;20573;-49
2023/01/28 06:24:51;;;;;;;14.60;9.33;;;0.30;99.90;;;;;;5014289;28;20203;-51
2023/01/28 06:27:20;;;;;;;12.87;8.80;;;0.40;99.90;;;;;;5013034;28;20224;-51
2023/01/28 06:29:48;;;;;;;13.17;8.77;;;0.40;99.90;;;;;;5014478;28;20203;-50
2023/01/28 06:32:15;;;;;;;13.03;8.83;;;0.30;99.90;;;;;;5009923;28;20259;-50
2023/01/28 06:34:42;;;;;;;15.30;10.50;;;0.40;99.90;;;;;;5009085;28;20275;-49
2023/01/28 06:37:12;;;;;;;15.57;8.63;;;0.50;99.90;;;;;;5010124;28;20275;-51
2023/01/28 06:39:40;;;;;;;13.83;9.63;;;0.50;99.90;;;;;;5002052;28;20606;-52
2023/01/28 06:42:07;;;;;;;16.93;9.90;;;0.40;99.90;;;;;;5013820;28;20606;-50
2023/01/28 06:44:34;;;;;;;18.40;10.97;;;0.50;99.90;;;;;;5014552;28;20200;-49
2023/01/28 06:47:02;;;;;;;13.33;9.03;;;0.50;99.90;;;;;;5014323;28;20240;-50
2023/01/28 06:49:29;;;;;;;15.00;9.43;;;0.50;99.90;;;;;;5011240;28;20246;-54
2023/01/28 06:51:56;;;;;;;14.73;8.57;;;0.50;99.90;;;;;;5007715;28;20222;-51
2023/01/28 06:54:23;;;;;;;12.77;8.83;;;0.50;99.90;;;;;;5004241;28;20208;-48
2023/01/28 06:56:51;;;;;;;12.63;8.43;;;0.50;99.90;;;;;;5013807;28;20273;-50
2023/01/28 06:59:18;;;;;;;11.93;7.77;;;0.40;99.90;;;;;;5006827;28;20275;-49
2023/01/28 07:01:45;;;;;;;14.03;9.53;;;0.40;99.90;;;;;;5006788;28;20243;-49
2023/01/28 07:04:12;;;;;;;13.53;9.23;;;0.40;99.90;;;;;;5006391;28;20253;-49
2023/01/28 07:06:39;;;;;;;19.03;10.90;;;0.40;99.90;;;;;;5007947;28;20219;-50
2023/01/28 07:09:06;;;;;;;14.60;8.80;;;0.40;99.90;;;;;;5014005;28;20197;-48
2023/01/28 07:11:33;;;;;;;15.23;8.87;;;0.40;99.90;;;;;;5009920;28;20588;-52
2023/01/28 07:14:02;;;;;;;16.53;9.00;;;0.40;99.90;;;;;;5006924;28;20674;-49
2023/01/28 07:16:29;;;;;;;16.03;9.27;;;0.50;99.90;;;;;;5001608;28;20226;-49
2023/01/28 07:18:56;;;;;;;12.97;8.37;;;0.50;99.90;;;;;;5012285;28;20247;-48
2023/01/28 07:21:23;;;;;;;17.97;9.23;;;0.50;99.90;;;;;;5013009;28;20205;-50
2023/01/28 07:23:50;;;;;;;13.77;8.77;;;0.50;99.90;;;;;;5009959;28;20255;-49
2023/01/28 07:26:18;;;;;;;15.50;9.80;;;0.50;99.90;;;;;;5006702;28;20591;-49
2023/01/28 07:28:45;;;;;;;9.73;8.23;;;0.50;99.90;;;;;;5006366;28;20290;-49
2023/01/28 07:31:14;;;;;;;14.27;9.60;;;0.50;99.90;;;;;;5005276;28;20199;-49
2023/01/28 07:33:41;;;;;;;14.30;9.40;;;0.50;99.90;;;;;;5003351;28;20211;-50
2023/01/28 07:36:08;;;;;;;15.70;9.53;;;0.50;99.90;;;;;;5002582;28;20227;-49
2023/01/28 07:38:35;;;;;;;12.97;9.40;;;0.60;99.90;;;;;;5006854;28;20278;-48
2023/01/28 07:41:02;;;;;;;16.93;10.70;;;0.70;99.90;;;;;;5004828;28;20212;-48
2023/01/28 07:43:29;;;;;;;15.27;10.60;;;0.70;99.90;;;;;;5012417;28;20211;-48
2023/01/28 07:45:59;;;;;;;17.23;10.67;;;0.70;99.90;;;;;;5012390;28;20656;-50
2023/01/28 07:48:28;;;;;;;18.83;12.07;;;0.70;99.90;;;;;;5013058;28;20789;-48
2023/01/28 07:50:59;;;;;;;19.50;11.93;;;0.80;99.90;;;;;;5010363;28;20205;-49
2023/01/28 07:53:26;;;;;;;15.50;11.37;;;0.80;99.90;;;;;;5006344;28;20318;-48
2023/01/28 07:55:58;;;;;;;17.40;10.40;;;0.80;99.90;;;;;;5007497;28;20224;-49
2023/01/28 07:58:25;;;;;;;13.50;9.33;;;0.80;99.90;;;;;;5002401;28;20261;-49
2023/01/28 08:00:56;;;;;;;14.60;10.00;;;0.80;99.90;;;;;;5007035;28;20222;-50
2023/01/28 08:03:23;;;;;;;16.20;10.90;;;0.80;99.90;;;;;;5008735;28;20207;-49
2023/01/28 08:05:53;;;;;;;15.97;9.23;;;0.80;99.90;;;;;;5012574;28;20253;-49
2023/01/28 08:08:21;;;;;;;16.03;10.30;;;0.90;99.90;;;;;;5012950;28;20686;-49
2023/01/28 08:10:48;;;;;;;12.27;8.67;;;0.90;99.90;;;;;;5001797;28;20255;-49
2023/01/28 08:13:16;;;;;;;11.97;8.73;;;1.00;99.90;;;;;;5012470;28;20200;-49
2023/01/28 08:15:44;;;;;;;13.90;10.23;;;1.10;99.90;;;;;;5011890;28;20266;-49
2023/01/28 08:18:13;;;;;;;14.47;10.87;;;1.10;99.90;;;;;;5006787;28;20251;-49
2023/01/28 08:20:41;;;;;;;15.83;10.20;;;1.20;99.90;;;;;;5012405;28;20220;-49
2023/01/28 08:23:13;;;;;;;16.60;8.87;;;1.20;99.90;;;;;;5012944;28;20211;-49
2023/01/28 08:25:40;;;;;;;14.00;9.20;;;1.10;99.90;;;;;;5012519;28;20255;-49
2023/01/28 08:28:07;;;;;;;14.57;10.20;;;1.20;99.90;;;;;;4999113;28;20290;-49
2023/01/28 08:30:36;;;;;;;16.90;11.03;;;1.20;99.90;;;;;;5001302;28;20270;-49
2023/01/28 08:33:04;;;;;;;16.57;9.20;;;1.20;99.90;;;;;;5011088;28;20202;-49
2023/01/28 08:35:32;;;;;;;13.43;9.37;;;1.20;99.90;;;;;;5012102;28;20654;-48
2023/01/28 08:38:00;;;;;;;14.80;9.53;;;1.20;99.90;;;;;;5012119;28;20644;-49
2023/01/28 08:40:28;;;;;;;14.67;9.00;;;1.20;99.90;;;;;;4993246;28;20321;-50
2023/01/28 08:42:56;;;;;;;15.20;9.03;;;1.30;99.90;;;;;;5011075;28;20213;-48
2023/01/28 08:45:24;;;;;;;15.13;8.97;;;1.40;99.90;;;;;;5000757;28;20199;-49
2023/01/28 08:47:54;;;;;;;16.37;9.23;;;1.40;99.90;;;;;;5007794;28;20874;-49
2023/01/28 08:50:23;;;;;;;12.90;8.80;;;1.40;99.90;;;;;;5008269;28;20196;-50
2023/01/28 08:52:56;;;;;;;13.57;9.30;;;1.40;99.90;;;;;;5012176;28;20223;-48
2023/01/28 08:55:23;;;;;;;13.77;8.90;;;1.50;99.90;;;;;;5010740;28;20204;-49
2023/01/28 08:57:52;;;;;;;14.67;8.60;;;1.50;99.90;;;;;;5005545;28;20224;-49
2023/01/28 09:00:20;;;;;;;15.17;9.33;;;1.60;99.90;;;;;;5011572;28;20225;-49
2023/01/28 09:02:47;;;;;;;12.10;9.10;;;1.70;99.90;;;;;;5011483;28;20266;-49
2023/01/28 09:05:15;;;;;;;14.17;9.60;;;1.80;99.90;;;;;;5011890;28;20209;-48
2023/01/28 09:07:42;;;;;;;16.90;9.07;;;1.90;99.90;;;;;;4995981;28;20314;-49
2023/01/28 09:10:11;;;;;;;14.43;8.50;;;2.00;99.90;;;;;;5009324;28;20203;-49
2023/01/28 09:12:38;;;;;;;13.47;9.30;;;2.20;99.90;;;;;;5012419;28;20779;-48
2023/01/28 09:15:08;;;;;;;21.50;11.23;;;2.50;99.90;;;;;;5011516;28;20306;-49
2023/01/28 09:17:35;;;;;;;21.00;11.20;;;2.70;99.90;;;;;;5010669;28;20369;-50
2023/01/28 09:20:03;;;;;;;14.43;9.47;;;3.00;99.90;;;;;;5010883;28;20287;-49
2023/01/28 09:22:30;;;;;;;12.90;8.90;;;3.40;99.90;;;;;;5011041;28;20204;-48
2023/01/28 09:24:57;;;;;;;14.10;8.80;;;3.40;99.90;;;;;;5011160;28;20259;-49
2023/01/28 09:27:24;;;;;;;16.00;8.27;;;3.50;99.90;;;;;;5009718;28;20595;-48
2023/01/28 09:29:51;;;;;;;12.07;8.73;;;3.50;99.90;;;;;;4991913;28;20201;-49
2023/01/28 09:32:23;;;;;;;17.43;9.47;;;3.50;99.90;;;;;;5002931;28;20216;-49
2023/01/28 09:34:50;;;;;;;13.40;8.37;;;3.30;99.90;;;;;;5000816;28;20207;-49
2023/01/28 09:37:20;;;;;;;14.23;8.47;;;3.10;99.90;;;;;;5010021;28;20221;-48
2023/01/28 09:39:47;;;;;;;15.03;9.73;;;3.20;99.90;;;;;;5001829;28;20733;-49
2023/01/28 09:42:28;;;;;;;14.70;9.30;;;3.10;99.90;;;;;;5008396;28;20803;-49
2023/01/28 09:45:06;;;;;;;14.20;9.00;;;3.10;99.90;;;;;;5008767;28;20211;-49
2023/01/28 09:47:39;;;;;;;16.43;9.50;;;3.10;99.90;;;;;;4999848;28;20233;-48
2023/01/28 09:50:09;;;;;;;14.37;9.10;;;3.10;99.90;;;;;;5004127;28;20201;-48
2023/01/28 09:52:39;;;;;;;13.77;9.07;;;3.00;99.90;;;;;;5006059;28;20630;-50
2023/01/28 09:55:16;;;;;;;14.30;8.43;;;3.10;99.90;;;;;;5010395;28;20742;-49
2023/01/28 09:57:48;;;;;;;13.57;9.13;;;3.00;99.90;;;;;;5007179;28;20224;-48
2023/01/28 10:00:18;;;;;;;15.27;9.70;;;3.00;99.90;;;;;;5009608;28;20224;-49
2023/01/28 10:03:07;;;;;;;16.50;10.40;;;3.10;99.90;;;;;;5003274;28;20204;-48
2023/01/28 10:05:43;;;;;;;17.13;10.17;;;3.20;99.90;;;;;;5000429;28;20201;-50
2023/01/28 10:08:26;;;;;;;22.07;11.50;;;3.00;99.90;;;;;;5009954;28;20207;-49
2023/01/28 10:11:01;;;;;;;18.00;11.00;;;3.10;99.90;;;;;;5002633;28;20197;-50
2023/01/28 10:13:38;;;;;;;18.23;10.00;;;3.30;99.90;;;;;;5006979;28;20207;-50
2023/01/28 10:16:22;;;;;;;17.93;11.27;;;3.20;99.90;;;;;;4997950;28;20220;-48
2023/01/28 10:18:55;;;;;;;17.17;9.90;;;3.10;99.90;;;;;;5004338;28;20250;-48
2023/01/28 10:21:30;;;;;;;21.33;11.37;;;2.90;99.90;;;;;;5003246;28;20224;-48
2023/01/28 10:24:03;;;;;;;24.03;11.30;;;2.80;99.90;;;;;;5006539;28;20258;-49
2023/01/28 10:26:33;;;;;;;18.87;10.90;;;2.90;99.90;;;;;;5007080;28;20644;-49
2023/01/28 10:29:05;;;;;;;22.27;11.90;;;3.00;99.90;;;;;;5005826;28;20231;-49
2023/01/28 10:31:39;;;;;;;18.97;11.80;;;3.20;99.90;;;;;;4999065;28;20201;-47
2023/01/28 10:34:09;;;;;;;17.90;11.77;;;3.10;99.90;;;;;;5007780;28;20225;-49
2023/01/28 10:36:36;;;;;;;20.80;11.80;;;2.80;99.90;;;;;;5004791;28;20632;-49
2023/01/28 10:39:03;;;;;;;19.57;11.90;;;2.70;99.90;;;;;;5011885;28;20206;-48
2023/01/28 10:41:30;;;;;;;17.33;10.17;;;2.80;99.90;;;;;;5012328;28;20221;-49
2023/01/28 10:43:58;;;;;;;17.70;11.27;;;2.80;99.90;;;;;;5004592;28;20271;-50
2023/01/28 10:46:30;;;;;;;20.03;11.67;;;2.90;99.90;;;;;;5014135;28;20253;-49
2023/01/28 10:49:04;;;;;;;19.23;10.87;;;3.00;99.90;;;;;;4996309;28;20214;-49
2023/01/28 10:51:35;;;;;;;15.77;10.30;;;3.10;99.90;;;;;;5007177;28;20257;-48
2023/01/28 10:54:03;;;;;;;18.17;10.50;;;3.30;99.90;;;;;;5001956;28;20203;-48
2023/01/28 10:56:32;;;;;;;16.97;10.83;;;3.40;99.90;;;;;;5005871;28;20223;-49
2023/01/28 10:59:02;;;;;;;17.03;11.03;;;3.50;99.90;;;;;;5010460;28;20631;-50
2023/01/28 11:01:44;;;;;;;22.37;11.77;;;3.40;99.90;;;;;;5009655;28;20283;-49
2023/01/28 11:04:18;;;;;;;17.93;11.10;;;3.50;99.90;;;;;;5000590;28;20200;-49
2023/01/28 11:06:55;;;;;;;13.63;9.67;;;3.60;99.90;;;;;;5010245;28;20227;-50
2023/01/28 11:09:23;;;;;;;18.17;11.00;;;3.60;99.90;;;;;;5008727;28;20207;-50
2023/01/28 11:11:50;;;;;;;16.10;10.33;;;3.40;99.90;;;;;;5004239;28;20261;-49
2023/01/28 11:14:22;;;;;;;19.17;11.43;;;3.40;99.90;;;;;;5007413;28;20206;-50
2023/01/28 11:16:51;;;;;;;16.43;10.50;;;3.30;99.90;;;;;;5009729;28;20280;-49
2023/01/28 11:19:19;;;;;;;16.33;10.23;;;3.30;99.90;;;;;;5007138;28;20255;-48
2023/01/28 11:21:50;;;;;;;16.57;11.13;;;3.30;99.90;;;;;;5004864;28;20780;-49
2023/01/28 11:24:22;;;;;;;16.43;9.93;;;3.40;99.90;;;;;;5006836;28;20200;-48
2023/01/28 11:26:52;;;;;;;18.63;10.37;;;3.40;99.90;;;;;;5009930;28;20602;-50
2023/01/28 11:29:24;;;;;;;19.10;11.17;;;3.20;99.90;;;;;;5001612;28;20205;-48
2023/01/28 11:31:51;;;;;;;17.83;10.13;;;3.20;99.90;;;;;;5011558;28;20204;-48
2023/01/28 11:34:19;;;;;;;14.23;9.13;;;3.30;99.90;;;;;;5004031;28;20204;-49
2023/01/28 11:36:54;;;;;;;15.70;10.13;;;3.30;99.90;;;;;;5011489;28;20624;-49
2023/01/28 11:39:24;;;;;;;16.30;10.13;;;3.30;99.90;;;;;;5008101;28;20291;-49
2023/01/28 11:41:52;;;;;;;16.40;10.83;;;3.40;99.90;;;;;;5006364;28;20224;-49
2023/01/28 11:44:22;;;;;;;17.37;10.00;;;3.50;99.90;;;;;;5003951;28;20214;-49
2023/01/28 11:47:05;;;;;;;15.03;10.23;;;3.40;99.90;;;;;;4993084;28;20229;-48
2023/01/28 11:49:44;;;;;;;16.57;9.67;;;3.40;99.90;;;;;;4992734;28;20299;-49
2023/01/28 11:52:24;;;;;;;18.90;11.07;;;3.50;99.90;;;;;;4992824;28;20312;-50
2023/01/28 11:55:05;;;;;;;14.97;10.10;;;3.50;99.90;;;;;;4995963;28;20604;-48
2023/01/28 11:57:42;;;;;;;18.07;11.07;;;3.20;99.90;;;;;;5012354;28;20252;-49
2023/01/28 12:00:33;;;;;;;15.40;9.97;;;3.10;99.90;;;;;;5012647;28;20300;-48
2023/01/28 12:03:22;;;;;;;17.63;9.43;;;3.10;99.90;;;;;;4992690;28;20691;-49
2023/01/28 12:05:52;;;;;;;14.20;9.70;;;3.00;99.90;;;;;;5007710;28;20200;-49
2023/01/28 12:08:23;;;;;;;16.90;10.10;;;2.90;99.90;;;;;;5012425;28;20620;-49
2023/01/28 12:11:09;;;;;;;15.60;9.53;;;2.90;99.90;;;;;;5007900;28;20227;-49
2023/01/28 12:14:00;;;;;;;15.27;10.20;;;3.00;99.90;;;;;;5009138;28;20259;-49
2023/01/28 12:16:45;;;;;;;18.43;11.13;;;2.90;99.90;;;;;;5009283;28;20290;-50
2023/01/28 12:19:33;;;;;;;18.47;10.73;;;2.90;99.90;;;;;;4996892;28;20209;-49
2023/01/28 12:22:28;;;;;;;17.83;11.00;;;2.90;99.90;;;;;;4993170;28;20284;-48
2023/01/28 12:25:15;;;;;;;13.63;8.77;;;3.00;99.90;;;;;;4992871;28;20206;-49
2023/01/28 12:27:55;;;;;;;13.97;9.30;;;2.90;99.90;;;;;;5010771;28;20303;-48
2023/01/28 12:30:31;;;;;;;13.00;8.77;;;2.90;99.90;;;;;;5012515;28;20701;-48
2023/01/28 12:33:14;;;;;;;14.90;9.40;;;2.90;99.90;;;;;;5012537;28;20235;-48
2023/01/28 12:35:55;;;;;;;16.03;9.80;;;3.00;99.90;;;;;;5006682;28;20259;-49
2023/01/28 12:38:32;;;;;;;20.53;9.00;;;2.90;99.90;;;;;;5012671;28;20219;-49
2023/01/28 12:41:04;;;;;;;14.00;9.37;;;2.80;99.90;;;;;;5010998;28;20289;-49
2023/01/28 12:43:48;;;;;;;16.03;10.30;;;2.80;99.90;;;;;;5012523;28;20296;-49
2023/01/28 12:46:46;;;;;;;14.23;8.87;;;2.70;99.90;;;;;;5012132;28;20286;-49
2023/01/28 12:49:19;;;;;;;14.87;9.50;;;2.70;99.90;;;;;;4988180;28;20252;-49
2023/01/28 12:51:54;;;;;;;11.03;7.67;;;2.80;99.90;;;;;;5009649;28;20208;-47
2023/01/28 12:54:27;;;;;;;15.30;8.60;;;2.70;99.90;;;;;;5007473;28;20292;-48
2023/01/28 12:56:56;;;;;;;17.40;9.93;;;2.70;99.90;;;;;;5005215;28;20231;-48
2023/01/28 12:59:30;;;;;;;15.07;8.87;;;2.80;99.90;;;;;;4997096;28;20209;-47
2023/01/28 13:02:06;;;;;;;16.23;9.53;;;2.70;99.90;;;;;;5004731;28;20278;-48
2023/01/28 13:04:40;;;;;;;11.20;8.00;;;2.80;99.90;;;;;;5000960;28;20691;-49
2023/01/28 13:07:13;;;;;;;11.87;8.50;;;2.70;99.90;;;;;;5000365;28;20227;-49
2023/01/28 13:09:48;;;;;;;14.13;8.03;;;2.60;99.90;;;;;;5008392;28;20213;-49
2023/01/28 13:12:16;;;;;;;10.67;7.73;;;2.70;99.90;;;;;;5002414;28;20524;-48
2023/01/28 13:14:45;;;;;;;15.43;7.70;;;2.80;99.90;;;;;;4998648;28;20660;-48
2023/01/28 13:17:23;;;;;;;12.97;8.47;;;2.80;99.90;;;;;;4999999;28;20642;-48
2023/01/28 13:19:50;;;;;;;14.10;8.67;;;2.70;99.90;;;;;;5003115;28;20209;-48
2023/01/28 13:22:29;;;;;;;8.57;6.97;;;2.70;99.90;;;;;;5000783;28;20302;-48
2023/01/28 13:24:58;;;;;;;9.03;6.90;;;2.70;99.90;;;;;;5003444;28;20250;-48
2023/01/28 13:27:27;;;;;;;11.23;7.17;;;2.60;99.90;;;;;;5000379;28;20232;-52